Wilcox, PA

4:57 AM EST on January 30, 2015 (GMT -0500)
Division Street Ext. | Change Station
CLOSE
Current Station
Personal Weather Station
Location: Mt Jewett, PA
Elevation: 2245 ft
Nearby Weather Stations

Elev 2245 ft 41.70 °N, 78.64 °W | Updated 4 minutes ago

Overcast
Overcast
24.3 °F
Feels Like 24 °F
N
1.1
Wind Variable Wind from ESE
Gusts 4.3 mph

Today
High -- | Low -- °F
--% Chance of Precip.
Yesterday
High -- | Low -- °F
Precip. -- in
7:28 AM 5:27 PM
Waxing Gibbous, 81% visible
Pressure 29.94 in
Visibility 3.0 miles
Clouds Overcast 900 ft
Windchill 24 °F
Dew Point 22 °F
Humidity 89%
Rainfall 0.00 in
Snow Depth Not available.
UV 0 out of 12
Pollen .10 out of 12
Air Quality Not available.
Flu Activity Not available.
METAR KBFD 300953Z AUTO 34012G21KT 3SM -SN OVC009 M04/M07 A2986 RMK AO2 CIG 008V013 SLP137 P0000 T10391067

More Conditions Fewer Conditions

Pressure 29.94 in
Visibility 3.0 miles
Clouds Overcast 900 ft
Windchill 24 °F
Dew Point 22 °F
Humidity 89%
Rainfall 0.00 in
Snow Depth Not available.
UV 0 out of 12
Pollen .10 out of 12
Air Quality Not available.
Flu Activity Not available.
METAR KBFD 300953Z AUTO 34012G21KT 3SM -SN OVC009 M04/M07 A2986 RMK AO2 CIG 008V013 SLP137 P0000 T10391067

More Conditions Fewer Conditions

Nowcast | as of 4:14 am EST on January 30, 2015

Bands of light to moderate snow will continue to cross central Pennsylvania through 5 am. Little additional snow accumulation is expected during this time...but persons traveling early this morning should be alert for poor travel conditions and allow extra time to reach your destination.

×

10-Day Weather Forecast

Almanac

Astronomy

Jan. 30, 2015 Rise Set
Actual Time
Civil Twilight
Nautical Twilight
Astronomical Twilight
Moon
Length of Visible Light
Length of Day
Tomorrow will be .
, % of the Moon is Illuminated

Today's Extremes

State Highs State Lows

Community

WunderPhotos

Upload Photos

1,791,737 photos uploaded!

WunderBlogs® & News

Nearby

Air Quality

  Air Quality AQ Index Pollutant
Not available.

Snow Depth

Station Depth Elevation

Earthquake Activity

City Distance Mag. Time & Date
Minimum magnitude displayed is 2.5.

Coastal Water Temperatures

Place Temperature

Nearby Weather Stations